createdAt,value
2023-02-02T00:00:25.403Z,4.00
2023-02-02T00:02:51.790Z,3.33
2023-02-02T00:05:18.148Z,3.67
2023-02-02T00:10:38.233Z,4.00
2023-02-02T00:13:04.622Z,4.00
2023-02-02T00:15:30.970Z,3.33
2023-02-02T00:17:57.314Z,3.33
2023-02-02T00:20:23.664Z,3.67
2023-02-02T00:25:33.991Z,4.00
2023-02-02T00:28:00.335Z,4.00
2023-02-02T00:30:26.779Z,4.00
2023-02-02T00:32:53.211Z,2.67
2023-02-02T00:35:19.586Z,3.33
2023-02-02T00:40:39.776Z,2.67
2023-02-02T00:43:06.144Z,1.33
2023-02-02T00:45:32.511Z,2.33
2023-02-02T00:47:58.875Z,3.33
2023-02-02T00:50:25.220Z,3.00
2023-02-02T00:55:35.368Z,4.00
2023-02-02T00:58:01.798Z,3.33
2023-02-02T01:00:28.171Z,2.67
2023-02-02T01:02:54.548Z,3.00
2023-02-02T01:05:20.910Z,2.67
2023-02-02T01:07:47.299Z,3.33
2023-02-02T01:10:13.653Z,3.67
2023-02-02T01:12:39.967Z,2.00
2023-02-02T01:15:06.350Z,3.00
2023-02-02T01:17:32.672Z,3.00
2023-02-02T01:19:59.033Z,3.33
2023-02-02T01:22:25.334Z,3.00
2023-02-02T01:24:51.794Z,2.33
2023-02-02T01:27:18.156Z,3.00
2023-02-02T01:29:44.539Z,2.67
2023-02-02T01:32:10.875Z,2.33
2023-02-02T01:34:37.223Z,3.00
2023-02-02T01:37:03.580Z,3.00
2023-02-02T01:39:29.955Z,2.00
2023-02-02T01:41:56.299Z,3.00
2023-02-02T01:44:22.645Z,3.00
2023-02-02T01:46:49.038Z,2.33
2023-02-02T01:49:15.393Z,2.00
2023-02-02T01:51:41.720Z,3.00
2023-02-02T01:54:08.093Z,1.33
2023-02-02T01:56:34.417Z,3.00
2023-02-02T01:59:00.729Z,1.67
2023-02-02T02:01:27.095Z,3.00
2023-02-02T02:03:53.475Z,1.33
2023-02-02T02:06:19.833Z,1.33
2023-02-02T02:08:46.216Z,2.33
2023-02-02T02:14:06.505Z,1.67
2023-02-02T02:16:32.951Z,4.00
2023-02-02T02:18:59.326Z,2.00
2023-02-02T02:21:25.648Z,1.00
2023-02-02T02:23:51.982Z,2.67
2023-02-02T02:29:02.408Z,1.33
2023-02-02T02:31:28.834Z,2.00
2023-02-02T02:33:55.135Z,2.33
2023-02-02T02:36:21.493Z,1.33
2023-02-02T02:38:47.816Z,1.33
2023-02-02T02:44:07.995Z,2.33
2023-02-02T02:46:34.356Z,2.00
2023-02-02T02:49:00.663Z,0.33
2023-02-02T02:51:27.015Z,2.00
2023-02-02T02:53:53.330Z,1.00
2023-02-02T02:59:03.308Z,1.00
2023-02-02T03:01:29.691Z,2.00
2023-02-02T03:03:56.098Z,1.00
2023-02-02T03:06:22.403Z,0.33
2023-02-02T03:08:50.169Z,2.00
2023-02-02T03:14:00.546Z,2.00
2023-02-02T03:16:26.847Z,0.67
2023-02-02T03:18:53.227Z,0.33
2023-02-02T03:21:19.569Z,2.00
2023-02-02T03:23:45.896Z,1.67
2023-02-02T03:29:06.280Z,1.00
2023-02-02T03:31:32.703Z,1.00
2023-02-02T03:33:59.166Z,0.33
2023-02-02T03:36:25.510Z,1.00
2023-02-02T03:38:51.842Z,1.00
2023-02-02T03:44:01.945Z,1.33
2023-02-02T03:46:28.324Z,2.00
2023-02-02T03:48:54.670Z,1.67
2023-02-02T03:51:23.846Z,1.00
2023-02-02T03:53:50.189Z,1.67
2023-02-02T03:59:00.279Z,2.00
2023-02-02T04:01:26.588Z,0.33
2023-02-02T04:03:52.943Z,0.33
2023-02-02T04:06:19.259Z,1.00
2023-02-02T04:08:45.592Z,1.00
2023-02-02T04:14:06.065Z,1.67
2023-02-02T04:16:32.426Z,2.00
2023-02-02T04:18:58.713Z,1.00
2023-02-02T04:21:25.023Z,1.33
2023-02-02T04:23:54.138Z,0.67
2023-02-02T04:29:14.579Z,1.00
2023-02-02T04:31:43.835Z,0.50
2023-02-02T04:34:10.180Z,1.00
2023-02-02T04:36:36.476Z,0.33
2023-02-02T04:39:05.613Z,0.50
2023-02-02T04:44:18.708Z,0.50
2023-02-02T04:46:45.002Z,0.33
2023-02-02T04:49:11.355Z,2.00
2023-02-02T04:51:40.473Z,0.67
2023-02-02T04:54:06.825Z,0.00
2023-02-02T04:56:33.218Z,0.33
2023-02-02T04:59:02.348Z,0.17
2023-02-02T05:01:28.658Z,0.33
2023-02-02T05:03:57.802Z,0.17
2023-02-02T05:06:24.127Z,1.00
2023-02-02T05:08:53.233Z,0.50
2023-02-02T05:11:22.323Z,0.67
2023-02-02T05:13:51.517Z,0.67
2023-02-02T05:16:17.869Z,0.33
2023-02-02T05:18:44.205Z,1.00
2023-02-02T05:21:13.320Z,0.00
2023-02-02T05:23:39.613Z,0.00
2023-02-02T05:26:05.985Z,0.00
2023-02-02T05:28:32.315Z,1.00
2023-02-02T05:31:01.490Z,0.50
2023-02-02T05:33:30.671Z,0.00
2023-02-02T05:35:56.963Z,1.00
2023-02-02T05:38:23.276Z,0.33
2023-02-02T05:40:49.607Z,0.33
2023-02-02T05:43:16.073Z,1.00
2023-02-02T05:45:45.202Z,1.00
2023-02-02T05:48:14.323Z,0.83
2023-02-02T05:50:43.438Z,0.50
2023-02-02T05:53:09.739Z,0.33
2023-02-02T05:55:38.856Z,0.00
2023-02-02T05:58:05.195Z,0.00
2023-02-02T06:00:34.338Z,1.00
2023-02-02T06:03:03.535Z,0.00
2023-02-02T06:05:32.717Z,0.17
2023-02-02T06:08:01.837Z,0.50
2023-02-02T06:10:30.941Z,0.33
2023-02-02T06:12:57.325Z,0.33
2023-02-02T06:15:25.120Z,16.50
2023-02-02T06:17:52.651Z,8.00
2023-02-02T06:20:22.281Z,7.50
2023-02-02T06:22:48.866Z,6.67
2023-02-02T06:25:16.074Z,4.50
2023-02-02T06:27:42.436Z,6.00
2023-02-02T06:33:04.618Z,5.50
2023-02-02T06:35:30.966Z,5.00
2023-02-02T06:37:57.305Z,4.00
2023-02-02T06:40:23.722Z,5.00
2023-02-02T06:42:50.044Z,4.33
2023-02-02T06:48:00.206Z,4.33
2023-02-02T06:50:26.555Z,5.00
2023-02-02T06:52:52.918Z,4.33
2023-02-02T06:55:21.378Z,5.25
2023-02-02T06:57:47.738Z,4.00
2023-02-02T07:02:58.402Z,4.00
2023-02-02T07:05:25.082Z,4.00
2023-02-02T07:07:51.937Z,4.00
2023-02-02T07:11:09.504Z,5.00
2023-02-02T07:13:05.450Z,5.00
2023-02-02T07:18:22.437Z,3.00
2023-02-02T07:20:48.826Z,3.67
2023-02-02T07:23:15.193Z,5.00
2023-02-02T07:25:43.604Z,4.00
2023-02-02T07:28:10.486Z,3.33
2023-02-02T07:33:21.030Z,3.33
2023-02-02T07:35:47.909Z,3.33
2023-02-02T07:38:17.803Z,3.67
2023-02-02T07:40:44.243Z,2.33
2023-02-02T07:43:10.875Z,3.00
2023-02-02T07:48:27.589Z,3.00
2023-02-02T07:50:54.097Z,31.00
2023-02-02T07:53:21.550Z,29.50
2023-02-02T07:55:48.999Z,21.50
2023-02-02T07:58:16.428Z,16.67
2023-02-02T08:03:27.793Z,8.00
2023-02-02T08:05:55.040Z,8.25
2023-02-02T08:08:22.297Z,6.25
2023-02-02T08:10:48.687Z,6.67
2023-02-02T08:13:15.925Z,6.00
2023-02-02T08:18:26.511Z,5.67
2023-02-02T08:20:52.848Z,5.67
2023-02-02T08:23:19.192Z,6.00
2023-02-02T08:25:45.605Z,4.00
2023-02-02T08:28:11.977Z,3.33
2023-02-02T08:33:22.278Z,4.33
2023-02-02T08:35:48.611Z,4.00
2023-02-02T08:38:15.015Z,11.00
2023-02-02T08:40:41.463Z,11.00
2023-02-02T08:43:08.486Z,5.33
2023-02-02T08:48:20.984Z,5.00
2023-02-02T08:50:47.732Z,8.00
2023-02-02T08:53:14.075Z,6.00
2023-02-02T08:55:40.425Z,5.00
2023-02-02T08:58:06.807Z,5.00
2023-02-02T09:00:33.206Z,5.00
2023-02-02T09:02:59.554Z,4.33
2023-02-02T09:05:26.238Z,6.00
2023-02-02T09:07:52.787Z,4.00
2023-02-02T09:10:19.203Z,3.00
2023-02-02T09:12:45.555Z,4.33
2023-02-02T09:15:11.916Z,4.33
2023-02-02T09:17:38.279Z,4.33
2023-02-02T09:20:04.631Z,5.67
2023-02-02T09:22:30.940Z,5.00
2023-02-02T09:24:57.354Z,4.67
2023-02-02T09:27:24.773Z,26.50
2023-02-02T09:29:51.240Z,17.00
2023-02-02T09:32:17.712Z,16.00
2023-02-02T09:34:45.021Z,11.67
2023-02-02T09:37:12.327Z,12.00
2023-02-02T09:39:38.777Z,9.00
2023-02-02T09:42:07.061Z,9.00
2023-02-02T09:44:33.509Z,7.50
2023-02-02T09:47:00.018Z,7.50
2023-02-02T09:49:26.419Z,7.00
2023-02-02T09:51:52.767Z,7.00
2023-02-02T09:54:19.112Z,6.00
2023-02-02T09:56:45.447Z,6.00
2023-02-02T09:59:19.841Z,4.00
2023-02-02T10:01:46.344Z,5.00
2023-02-02T10:04:12.742Z,3.00
2023-02-02T10:06:39.112Z,5.33
2023-02-02T10:09:05.481Z,5.00
2023-02-02T10:11:31.841Z,5.00
2023-02-02T10:13:58.186Z,5.00
2023-02-02T10:16:24.665Z,6.00
2023-02-02T10:21:34.829Z,4.00
2023-02-02T10:24:02.392Z,5.00
2023-02-02T10:26:28.861Z,4.00
2023-02-02T10:28:55.259Z,5.67
2023-02-02T10:31:21.831Z,5.00
2023-02-02T10:36:32.358Z,5.00
2023-02-02T10:38:58.702Z,4.00
2023-02-02T10:41:25.070Z,3.67
2023-02-02T10:43:51.423Z,5.00
2023-02-02T10:46:17.823Z,4.00
2023-02-02T10:51:34.465Z,4.33
2023-02-02T10:54:00.826Z,4.67
2023-02-02T10:56:27.128Z,0.00
2023-02-02T10:58:53.474Z,4.67
2023-02-02T11:01:20.786Z,4.50
2023-02-02T11:06:37.508Z,5.00
2023-02-02T11:09:03.968Z,5.00
2023-02-02T11:11:30.327Z,5.00
2023-02-02T11:13:56.655Z,5.00
2023-02-02T11:16:23.094Z,5.67
2023-02-02T11:21:33.383Z,6.67
2023-02-02T11:23:59.754Z,5.00
2023-02-02T11:26:26.614Z,8.00
2023-02-02T11:28:53.040Z,6.00
2023-02-02T11:31:20.371Z,6.75
2023-02-02T11:36:37.583Z,7.00
2023-02-02T11:39:03.995Z,7.00
2023-02-02T11:41:30.379Z,6.33
2023-02-02T11:43:56.775Z,7.00
2023-02-02T11:46:23.183Z,6.33
2023-02-02T11:51:40.249Z,6.33
2023-02-02T11:54:06.716Z,7.67
2023-02-02T11:56:33.246Z,5.33
2023-02-02T11:58:59.653Z,7.00
2023-02-02T12:01:26.061Z,8.00
2023-02-02T12:06:42.237Z,5.33
2023-02-02T12:09:09.496Z,6.00
2023-02-02T12:11:35.870Z,4.67
2023-02-02T12:14:02.211Z,6.00
2023-02-02T12:16:28.630Z,5.33
2023-02-02T12:21:39.131Z,4.00
2023-02-02T12:24:05.499Z,5.00
2023-02-02T12:26:31.932Z,7.00
2023-02-02T12:28:58.375Z,6.00
2023-02-02T12:31:24.741Z,6.00
2023-02-02T12:33:51.138Z,5.00
2023-02-02T12:36:17.950Z,6.00
2023-02-02T12:38:44.391Z,5.33
2023-02-02T12:41:10.755Z,7.00
2023-02-02T12:43:37.127Z,5.00
2023-02-02T12:46:03.473Z,5.00
2023-02-02T12:48:29.875Z,6.00
2023-02-02T12:50:56.228Z,4.67
2023-02-02T12:53:22.663Z,7.00
2023-02-02T12:55:48.981Z,5.67
2023-02-02T12:58:16.173Z,5.75
2023-02-02T13:00:42.598Z,4.00
2023-02-02T13:03:08.965Z,4.67
2023-02-02T13:05:47.464Z,5.00
2023-02-02T13:08:13.845Z,3.33
2023-02-02T13:10:40.232Z,4.67
2023-02-02T13:13:06.625Z,4.33
2023-02-02T13:15:32.983Z,3.33
2023-02-02T13:17:59.378Z,4.00
2023-02-02T13:20:25.994Z,5.00
2023-02-02T13:22:52.520Z,5.00
2023-02-02T13:25:18.880Z,4.33
2023-02-02T13:27:45.318Z,5.00
2023-02-02T13:30:11.690Z,4.00
2023-02-02T13:32:38.065Z,4.33
2023-02-02T13:35:04.481Z,3.67
2023-02-02T13:40:15.587Z,4.00
2023-02-02T13:42:41.973Z,4.33
2023-02-02T13:45:08.367Z,1.33
2023-02-02T13:47:34.738Z,6.00
2023-02-02T13:50:01.152Z,5.67
2023-02-02T13:55:12.421Z,7.00
2023-02-02T13:57:38.825Z,4.67
2023-02-02T14:00:05.937Z,5.33
2023-02-02T14:02:33.338Z,5.00
2023-02-02T14:04:59.795Z,6.00
2023-02-02T14:10:16.643Z,4.00
2023-02-02T14:12:42.998Z,4.33
2023-02-02T14:15:09.402Z,5.00
2023-02-02T14:17:35.770Z,5.00
2023-02-02T14:20:02.132Z,5.00
2023-02-02T14:25:18.640Z,5.00
2023-02-02T14:27:45.039Z,5.00
2023-02-02T14:30:11.402Z,4.33
2023-02-02T14:32:37.798Z,4.00
2023-02-02T14:35:04.225Z,4.00
2023-02-02T14:40:21.433Z,3.67
2023-02-02T14:42:47.904Z,3.67
2023-02-02T14:45:14.320Z,4.00
2023-02-02T14:47:40.704Z,3.67
2023-02-02T14:50:07.148Z,3.33
2023-02-02T14:55:18.472Z,3.00
2023-02-02T14:57:44.847Z,4.33
2023-02-02T15:00:11.253Z,3.33
2023-02-02T15:02:37.671Z,3.33
2023-02-02T15:05:04.075Z,4.00
2023-02-02T15:10:14.485Z,3.00
2023-02-02T15:12:40.879Z,2.33
2023-02-02T15:15:07.492Z,1.33
2023-02-02T15:17:33.890Z,2.33
2023-02-02T15:20:00.268Z,2.33
2023-02-02T15:25:17.415Z,3.00
2023-02-02T15:27:56.211Z,2.33
2023-02-02T15:30:23.457Z,1.33
2023-02-02T15:32:49.826Z,1.33
2023-02-02T15:35:16.198Z,1.33
2023-02-02T15:40:32.525Z,1.33
2023-02-02T15:42:58.874Z,0.33
2023-02-02T15:45:25.226Z,1.33
2023-02-02T15:47:51.610Z,1.00
2023-02-02T15:50:17.976Z,0.33
2023-02-02T15:55:40.289Z,0.17
2023-02-02T15:58:06.677Z,2.00
2023-02-02T16:00:33.124Z,1.00
2023-02-02T16:02:59.576Z,0.67
2023-02-02T16:05:28.713Z,1.00
2023-02-02T16:10:48.211Z,1.00
2023-02-02T16:13:14.573Z,0.33
2023-02-02T16:15:43.743Z,1.00
2023-02-02T16:18:10.249Z,0.00
2023-02-02T16:20:39.404Z,1.00
2023-02-02T16:23:05.791Z,1.00
2023-02-02T16:25:35.020Z,1.00
2023-02-02T16:28:04.199Z,1.00
2023-02-02T16:30:30.569Z,1.00
2023-02-02T16:32:59.724Z,1.00
2023-02-02T16:35:28.890Z,1.00
2023-02-02T16:37:58.033Z,0.00
2023-02-02T16:40:24.389Z,1.00
2023-02-02T16:42:50.752Z,0.00
2023-02-02T16:45:17.144Z,0.00
2023-02-02T16:47:46.308Z,1.00
2023-02-02T16:50:12.684Z,0.33
2023-02-02T16:52:41.838Z,0.00
2023-02-02T16:55:11.142Z,1.00
2023-02-02T16:57:37.512Z,0.00
2023-02-02T17:00:06.670Z,1.00
2023-02-02T17:02:33.045Z,0.00
2023-02-02T17:05:02.216Z,0.33
2023-02-02T17:07:31.386Z,0.00
2023-02-02T17:10:00.555Z,0.00
2023-02-02T17:12:34.481Z,0.17
2023-02-02T17:15:01.441Z,0.00
2023-02-02T17:17:30.606Z,0.83
2023-02-02T17:19:59.744Z,1.00
2023-02-02T17:22:26.083Z,0.00
2023-02-02T17:24:55.225Z,1.00
2023-02-02T17:27:21.560Z,1.00
2023-02-02T17:29:50.706Z,1.00
2023-02-02T17:32:17.065Z,0.00
2023-02-02T17:34:43.438Z,1.33
2023-02-02T17:37:09.940Z,1.00
2023-02-02T17:39:39.095Z,1.00
2023-02-02T17:42:08.252Z,1.00
2023-02-02T17:44:37.420Z,1.00
2023-02-02T17:47:03.863Z,1.00
2023-02-02T17:49:30.391Z,2.00
2023-02-02T17:51:57.757Z,14.00
2023-02-02T17:54:25.331Z,12.33
2023-02-02T17:59:35.732Z,11.00
2023-02-02T18:02:02.272Z,10.50
2023-02-02T18:04:28.758Z,9.50
2023-02-02T18:06:55.197Z,10.00
2023-02-02T18:09:23.485Z,7.40
2023-02-02T18:14:44.470Z,5.00
2023-02-02T18:17:11.191Z,8.00
2023-02-02T18:19:37.571Z,6.00
2023-02-02T18:22:03.972Z,5.00
2023-02-02T18:24:30.370Z,5.00
2023-02-02T18:29:40.826Z,4.33
2023-02-02T18:32:07.273Z,4.00
2023-02-02T18:34:33.663Z,4.00
2023-02-02T18:37:00.047Z,3.00
2023-02-02T18:39:26.426Z,5.00
2023-02-02T18:44:36.524Z,5.00
2023-02-02T18:47:02.932Z,4.00
2023-02-02T18:49:29.497Z,3.00
2023-02-02T18:51:55.859Z,4.33
2023-02-02T18:54:22.229Z,5.00
2023-02-02T18:59:42.839Z,4.67
2023-02-02T19:02:09.289Z,4.00
2023-02-02T19:04:35.689Z,5.00
2023-02-02T19:07:02.054Z,4.00
2023-02-02T19:09:28.432Z,4.00
2023-02-02T19:14:48.821Z,4.00
2023-02-02T19:17:15.214Z,4.67
2023-02-02T19:19:41.567Z,5.00
2023-02-02T19:22:07.991Z,4.00
2023-02-02T19:24:34.374Z,4.00
2023-02-02T19:29:44.774Z,4.00
2023-02-02T19:32:11.153Z,5.67
2023-02-02T19:34:37.714Z,5.00
2023-02-02T19:37:04.097Z,5.00
2023-02-02T19:39:30.450Z,4.00
2023-02-02T19:44:50.605Z,4.00
2023-02-02T19:47:17.145Z,4.67
2023-02-02T19:49:43.560Z,4.67
2023-02-02T19:52:09.932Z,5.00
2023-02-02T19:54:36.308Z,5.00
2023-02-02T19:59:46.417Z,4.00
2023-02-02T20:02:12.783Z,5.00
2023-02-02T20:04:39.158Z,4.00
2023-02-02T20:07:05.557Z,5.67
2023-02-02T20:09:32.008Z,5.00
2023-02-02T20:11:58.373Z,4.67
2023-02-02T20:14:24.741Z,4.33
2023-02-02T20:16:51.171Z,5.00
2023-02-02T20:19:17.558Z,4.67
2023-02-02T20:21:44.108Z,5.00
2023-02-02T20:24:11.378Z,5.25
2023-02-02T20:26:37.798Z,7.67
2023-02-02T20:29:04.221Z,5.33
2023-02-02T20:31:30.600Z,5.00
2023-02-02T20:33:57.083Z,5.33
2023-02-02T20:36:23.465Z,5.33
2023-02-02T20:38:50.061Z,5.33
2023-02-02T20:41:16.658Z,5.33
2023-02-02T20:43:43.064Z,4.67
2023-02-02T20:46:10.356Z,6.00
2023-02-02T20:48:36.924Z,5.50
2023-02-02T20:51:03.492Z,6.33
2023-02-02T20:53:29.866Z,4.00
2023-02-02T20:55:56.250Z,5.33
2023-02-02T20:58:23.294Z,5.00
2023-02-02T21:00:49.690Z,5.00
2023-02-02T21:03:25.467Z,5.00
2023-02-02T21:05:51.815Z,5.00
2023-02-02T21:08:19.051Z,4.00
2023-02-02T21:10:45.412Z,4.67
2023-02-02T21:13:11.936Z,4.33
2023-02-02T21:15:38.313Z,4.33
2023-02-02T21:18:04.745Z,3.33
2023-02-02T21:20:31.154Z,3.33
2023-02-02T21:22:57.521Z,4.00
2023-02-02T21:25:24.053Z,4.67
2023-02-02T21:27:50.426Z,5.00
2023-02-02T21:30:16.783Z,4.67
2023-02-02T21:32:43.325Z,4.33
2023-02-02T21:35:09.680Z,6.00
2023-02-02T21:37:36.038Z,5.00
2023-02-02T21:40:02.421Z,6.00
2023-02-02T21:42:28.799Z,4.33
2023-02-02T21:44:55.334Z,4.00
2023-02-02T21:47:21.719Z,3.67
2023-02-02T21:49:48.122Z,3.33
2023-02-02T21:52:14.547Z,3.33
2023-02-02T21:54:40.909Z,4.00
2023-02-02T21:57:07.283Z,5.00
2023-02-02T21:59:36.453Z,6.83
2023-02-02T22:02:02.912Z,7.50
2023-02-02T22:04:29.419Z,27.00
2023-02-02T22:06:55.975Z,31.00
2023-02-02T22:09:22.511Z,30.00
2023-02-02T22:11:50.010Z,28.67
2023-02-02T22:14:16.749Z,28.00
2023-02-02T22:16:44.412Z,18.00
2023-02-02T22:19:10.920Z,23.50
2023-02-02T22:21:37.472Z,20.00
2023-02-02T22:24:04.032Z,19.50
2023-02-02T22:26:31.499Z,16.00
2023-02-02T22:28:58.021Z,16.00
2023-02-02T22:31:25.606Z,14.67
2023-02-02T22:33:53.111Z,14.67
2023-02-02T22:36:19.636Z,12.50
2023-02-02T22:38:47.120Z,11.67
2023-02-02T22:41:14.492Z,11.00
2023-02-02T22:43:41.066Z,11.00
2023-02-02T22:46:07.645Z,9.00
2023-02-02T22:48:36.859Z,9.00
2023-02-02T22:51:05.256Z,9.40
2023-02-02T22:53:31.734Z,7.50
2023-02-02T22:55:58.370Z,5.50
2023-02-02T22:58:27.598Z,7.00
2023-02-02T23:00:54.882Z,7.75
2023-02-02T23:03:22.163Z,6.00
2023-02-02T23:05:49.771Z,7.00
2023-02-02T23:08:17.047Z,5.50
2023-02-02T23:10:43.431Z,5.00
2023-02-02T23:13:10.741Z,4.25
2023-02-02T23:15:37.122Z,5.33
2023-02-02T23:18:03.649Z,9.00
2023-02-02T23:20:30.988Z,12.67
2023-02-02T23:22:57.496Z,8.00
2023-02-02T23:25:24.006Z,18.50
2023-02-02T23:27:51.402Z,12.33
2023-02-02T23:30:18.782Z,10.67
2023-02-02T23:32:47.108Z,9.20
2023-02-02T23:35:13.504Z,7.00
2023-02-02T23:37:39.904Z,7.00
2023-02-02T23:40:06.381Z,7.00
2023-02-02T23:42:32.837Z,7.00
2023-02-02T23:44:59.226Z,5.00
2023-02-02T23:47:25.601Z,5.00
2023-02-02T23:49:51.992Z,5.67
2023-02-02T23:52:19.238Z,3.50
2023-02-02T23:54:45.682Z,4.00
2023-02-02T23:57:12.075Z,4.00
2023-02-02T23:59:38.462Z,2.00
